Time;durP1;ratioP1;P1;durP2;ratioP2;P2;SDS_P1;SDS_P2;PMS_P1;PMS_P2;Temp;Humidity;BMP_temperature;BMP_pressure;BME280_temperature;BME280_humidity;BME280_pressure;Samples;Min_cycle;Max_cycle;Signal;HPM_P1;HPM_P2
2023/03/17 00:01:54;;;;;;;35.37;16.50;;;1.60;99.90;;;;;;4771899;30;20205;-81
2023/03/17 00:04:23;;;;;;;32.03;16.27;;;1.60;99.90;;;;;;4756009;30;20209;-82
2023/03/17 00:06:50;;;;;;;33.17;16.93;;;1.50;99.90;;;;;;4770202;30;20296;-82
2023/03/17 00:09:18;;;;;;;37.30;16.77;;;1.50;99.90;;;;;;4770885;30;20241;-84
2023/03/17 00:11:46;;;;;;;31.77;15.57;;;1.40;99.90;;;;;;4772257;30;20231;-81
2023/03/17 00:14:13;;;;;;;34.67;17.10;;;1.40;99.90;;;;;;4770504;30;20207;-83
2023/03/17 00:16:42;;;;;;;36.20;16.30;;;1.30;99.90;;;;;;4770155;30;20259;-81
2023/03/17 00:19:25;;;;;;;34.87;16.17;;;1.30;99.90;;;;;;4771657;30;20197;-81
2023/03/17 00:21:52;;;;;;;35.77;16.43;;;1.30;99.90;;;;;;4771659;30;20614;-83
2023/03/17 00:24:18;;;;;;;35.13;15.93;;;1.30;99.90;;;;;;4769942;30;20232;-84
2023/03/17 00:26:45;;;;;;;33.83;16.20;;;1.20;99.90;;;;;;4771279;30;20205;-81
2023/03/17 00:29:12;;;;;;;33.70;16.53;;;1.20;99.90;;;;;;4771508;30;20274;-82
2023/03/17 00:31:39;;;;;;;31.27;16.00;;;1.20;99.90;;;;;;4768798;30;20214;-80
2023/03/17 00:34:10;;;;;;;33.70;16.50;;;1.30;99.90;;;;;;4753492;30;20259;-81
2023/03/17 00:36:41;;;;;;;31.53;15.97;;;1.40;99.90;;;;;;4753593;30;20711;-81
2023/03/17 00:39:13;;;;;;;32.47;16.53;;;1.40;99.90;;;;;;4753510;30;20206;-82
2023/03/17 00:41:43;;;;;;;34.53;16.77;;;1.30;99.90;;;;;;4752120;30;20258;-82
2023/03/17 00:44:10;;;;;;;33.93;16.57;;;1.10;99.90;;;;;;4751824;30;20690;-80
2023/03/17 00:46:40;;;;;;;30.30;15.40;;;1.10;99.90;;;;;;4781641;30;20214;-78
2023/03/17 00:49:18;;;;;;;34.10;16.03;;;1.00;99.90;;;;;;4753562;30;20198;-80
2023/03/17 00:51:45;;;;;;;35.10;15.83;;;0.90;99.90;;;;;;4752044;30;20228;-79
2023/03/17 00:54:13;;;;;;;36.17;16.07;;;0.90;99.90;;;;;;4754582;30;20224;-76
2023/03/17 00:56:41;;;;;;;30.50;15.40;;;0.80;99.90;;;;;;4786637;29;20235;-77
2023/03/17 00:59:20;;;;;;;33.90;15.23;;;0.90;99.90;;;;;;4769570;30;20218;-77
2023/03/17 01:01:47;;;;;;;31.77;15.43;;;1.00;99.90;;;;;;4770731;30;20205;-77
2023/03/17 01:04:15;;;;;;;35.50;15.90;;;1.00;99.90;;;;;;4769414;30;20205;-80
2023/03/17 01:06:42;;;;;;;38.67;16.93;;;1.00;99.90;;;;;;4770750;30;20213;-76
2023/03/17 01:09:15;;;;;;;35.53;17.40;;;0.90;99.90;;;;;;4769908;30;20213;-76
2023/03/17 01:11:43;;;;;;;35.43;16.70;;;0.90;99.90;;;;;;4764510;30;20243;-77
2023/03/17 01:14:11;;;;;;;38.30;17.93;;;0.90;99.90;;;;;;4769240;30;20660;-77
2023/03/17 01:16:38;;;;;;;38.47;18.30;;;0.90;99.90;;;;;;4768739;30;20231;-78
2023/03/17 01:19:08;;;;;;;36.40;17.80;;;0.90;99.90;;;;;;4768917;30;20275;-77
2023/03/17 01:21:34;;;;;;;38.33;17.60;;;0.90;99.90;;;;;;4769318;30;20205;-78
2023/03/17 01:24:01;;;;;;;38.07;17.30;;;0.90;99.90;;;;;;4773300;29;20204;-78
2023/03/17 01:26:28;;;;;;;37.83;18.00;;;0.90;99.90;;;;;;4790087;29;20214;-77
2023/03/17 01:28:55;;;;;;;38.27;18.47;;;0.90;99.90;;;;;;4806177;29;20793;-78
2023/03/17 01:31:23;;;;;;;37.73;18.97;;;0.90;99.90;;;;;;4790120;29;20564;-81
2023/03/17 01:33:50;;;;;;;39.80;18.37;;;0.80;99.90;;;;;;4790066;29;20219;-81
2023/03/17 01:36:17;;;;;;;37.90;19.07;;;0.80;99.90;;;;;;4789530;29;20230;-81
2023/03/17 01:38:46;;;;;;;39.40;17.97;;;0.80;99.90;;;;;;4790041;29;20610;-78
2023/03/17 01:41:13;;;;;;;40.07;18.40;;;0.80;99.90;;;;;;4806001;29;20272;-77
2023/03/17 01:43:41;;;;;;;36.20;18.27;;;0.70;99.90;;;;;;4789767;29;20658;-77
2023/03/17 01:46:34;;;;;;;35.40;17.03;;;0.70;99.90;;;;;;4789625;29;20333;-80
2023/03/17 01:49:14;;;;;;;40.73;17.53;;;0.60;99.90;;;;;;4789913;29;20215;-79
2023/03/17 01:52:01;;;;;;;36.07;18.03;;;0.60;99.90;;;;;;4789651;29;20207;-79
2023/03/17 01:54:36;;;;;;;36.93;18.23;;;0.50;99.90;;;;;;4789351;29;20207;-79
2023/03/17 01:57:30;;;;;;;41.17;18.13;;;0.40;99.90;;;;;;4805674;29;20734;-78
2023/03/17 02:00:06;;;;;;;42.50;19.00;;;0.40;99.90;;;;;;4798821;29;20241;-78
2023/03/17 02:02:39;;;;;;;41.30;19.00;;;0.30;99.90;;;;;;4824030;29;20194;-76
2023/03/17 02:05:10;;;;;;;40.33;19.13;;;0.20;99.90;;;;;;4823891;29;20209;-79
2023/03/17 02:07:40;;;;;;;45.73;20.40;;;0.10;99.90;;;;;;4807404;29;20205;-81
2023/03/17 02:10:08;;;;;;;44.97;20.03;;;0.00;99.90;;;;;;4807668;29;20576;-77
2023/03/17 02:12:35;;;;;;;42.07;19.50;;;0.00;99.90;;;;;;4793451;29;20231;-79
2023/03/17 02:15:02;;;;;;;42.63;20.80;;;-0.10;99.90;;;;;;4774544;29;20206;-80
2023/03/17 02:17:29;;;;;;;49.37;22.10;;;-0.20;99.90;;;;;;4789653;29;20220;-81
2023/03/17 02:20:13;;;;;;;48.83;21.90;;;-0.20;99.90;;;;;;4789486;29;20194;-81
2023/03/17 02:22:44;;;;;;;55.50;23.20;;;-0.30;99.90;;;;;;4805413;29;20733;-81
2023/03/17 02:25:12;;;;;;;55.10;22.70;;;-0.30;99.90;;;;;;4788907;29;20245;-81
2023/03/17 02:27:46;;;;;;;52.33;23.43;;;-0.30;99.90;;;;;;4805624;29;20212;-81
2023/03/17 02:30:16;;;;;;;53.43;23.27;;;-0.40;99.90;;;;;;4792501;29;20237;-81
2023/03/17 02:32:43;;;;;;;53.50;22.83;;;-0.30;99.90;;;;;;4792925;29;20227;-79
2023/03/17 02:35:10;;;;;;;51.33;23.47;;;-0.40;99.90;;;;;;4792797;29;20237;-77
2023/03/17 02:37:37;;;;;;;51.10;24.10;;;-0.40;99.90;;;;;;4792694;29;20599;-77
2023/03/17 02:40:06;;;;;;;54.47;24.40;;;-0.40;99.90;;;;;;4792983;29;20208;-77
2023/03/17 02:42:33;;;;;;;52.10;23.93;;;-0.50;99.90;;;;;;4792797;29;20218;-82
2023/03/17 02:45:01;;;;;;;58.23;23.87;;;-0.50;99.90;;;;;;4808829;29;20251;-80
2023/03/17 02:47:27;;;;;;;55.70;25.47;;;-0.50;99.90;;;;;;4792525;29;20214;-82
2023/03/17 02:49:54;;;;;;;55.10;25.13;;;-0.60;99.90;;;;;;4808925;29;20553;-80
2023/03/17 02:52:21;;;;;;;58.53;24.50;;;-0.60;99.90;;;;;;4792626;29;20214;-79
2023/03/17 02:54:48;;;;;;;55.63;25.03;;;-0.60;99.90;;;;;;4808622;29;20212;-78
2023/03/17 02:57:15;;;;;;;60.90;26.07;;;-0.60;99.90;;;;;;4808727;29;20252;-80
2023/03/17 02:59:42;;;;;;;59.53;25.40;;;-0.60;99.90;;;;;;4792693;29;20207;-80
2023/03/17 03:02:10;;;;;;;57.67;26.60;;;-0.60;99.90;;;;;;4792547;29;20230;-78
2023/03/17 03:04:37;;;;;;;59.57;26.23;;;-0.60;99.90;;;;;;4808627;29;20551;-77
2023/03/17 03:07:04;;;;;;;64.30;27.03;;;-0.60;99.90;;;;;;4808899;29;20203;-77
2023/03/17 03:09:31;;;;;;;62.07;27.83;;;-0.60;99.90;;;;;;4792496;29;20199;-77
2023/03/17 03:11:58;;;;;;;61.77;27.70;;;-0.60;99.90;;;;;;4808513;29;20233;-79
2023/03/17 03:14:25;;;;;;;58.50;27.27;;;-0.60;99.90;;;;;;4808403;29;20204;-81
2023/03/17 03:16:53;;;;;;;65.83;28.33;;;-0.70;99.90;;;;;;4808304;29;20321;-80
2023/03/17 03:19:21;;;;;;;65.53;27.77;;;-0.70;99.90;;;;;;4792270;29;20210;-80
2023/03/17 03:21:48;;;;;;;66.47;28.03;;;-0.70;99.90;;;;;;4792318;29;20219;-77
2023/03/17 03:24:15;;;;;;;68.53;28.47;;;-0.80;99.90;;;;;;4791989;29;20561;-79
2023/03/17 03:26:42;;;;;;;70.43;28.70;;;-0.80;99.90;;;;;;4792267;29;20206;-81
2023/03/17 03:29:09;;;;;;;64.17;27.93;;;-0.80;99.90;;;;;;4792045;29;20202;-80
2023/03/17 03:31:36;;;;;;;72.20;29.93;;;-0.80;99.90;;;;;;4808349;29;20656;-80
2023/03/17 03:34:03;;;;;;;66.87;29.00;;;-0.80;99.90;;;;;;4792044;29;21752;-80
2023/03/17 03:36:31;;;;;;;68.50;30.03;;;-0.80;99.90;;;;;;4792199;29;20233;-80
2023/03/17 03:38:59;;;;;;;66.93;29.07;;;-0.90;99.90;;;;;;4808213;29;20292;-79
2023/03/17 03:41:26;;;;;;;70.13;29.93;;;-0.90;99.90;;;;;;4807327;29;20570;-83
2023/03/17 03:43:53;;;;;;;67.53;29.50;;;-0.90;99.90;;;;;;4791853;29;20211;-81
2023/03/17 03:46:20;;;;;;;65.60;29.50;;;-1.00;99.90;;;;;;4791430;29;20206;-82
2023/03/17 03:48:47;;;;;;;71.73;30.87;;;-1.00;99.90;;;;;;4791731;29;20252;-77
2023/03/17 03:51:14;;;;;;;67.50;29.93;;;-0.90;99.90;;;;;;4808001;29;20222;-79
2023/03/17 03:53:42;;;;;;;67.50;29.03;;;-1.00;99.90;;;;;;4791585;29;20207;-77
2023/03/17 03:56:09;;;;;;;68.23;30.20;;;-1.00;99.90;;;;;;4791589;29;20211;-79
2023/03/17 03:58:36;;;;;;;72.67;29.47;;;-1.00;99.90;;;;;;4807901;29;20200;-80
2023/03/17 04:01:08;;;;;;;75.63;32.30;;;-1.00;99.90;;;;;;4791507;29;20211;-82
2023/03/17 04:03:36;;;;;;;69.90;30.63;;;-1.10;99.90;;;;;;4791645;29;20263;-81
2023/03/17 04:06:03;;;;;;;68.03;30.47;;;-1.10;99.90;;;;;;4791443;29;20202;-81
2023/03/17 04:08:30;;;;;;;67.10;29.90;;;-1.10;99.90;;;;;;4791770;29;20212;-80
2023/03/17 04:10:57;;;;;;;66.90;29.70;;;-1.20;99.90;;;;;;4791424;29;20234;-80
2023/03/17 04:13:26;;;;;;;66.07;29.50;;;-1.20;99.90;;;;;;4807599;29;20225;-77
2023/03/17 04:15:53;;;;;;;70.70;30.73;;;-1.20;99.90;;;;;;4807253;29;20223;-81
2023/03/17 04:18:20;;;;;;;59.93;27.87;;;-1.20;99.90;;;;;;4791082;29;20228;-79
2023/03/17 04:20:47;;;;;;;70.00;30.07;;;-1.20;99.90;;;;;;4791180;29;20201;-80
2023/03/17 04:23:13;;;;;;;61.40;29.37;;;-1.20;99.90;;;;;;4791096;29;20218;-78
2023/03/17 04:25:41;;;;;;;70.77;29.47;;;-1.20;99.90;;;;;;4790869;29;20242;-78
2023/03/17 04:28:07;;;;;;;60.10;27.97;;;-1.20;99.90;;;;;;4790842;29;20244;-78
2023/03/17 04:30:34;;;;;;;64.20;28.33;;;-1.20;99.90;;;;;;4791221;29;20204;-78
2023/03/17 04:33:01;;;;;;;61.43;27.73;;;-1.20;99.90;;;;;;4791331;29;20230;-78
2023/03/17 04:35:28;;;;;;;61.17;28.13;;;-1.20;99.90;;;;;;4790276;29;20655;-82
2023/03/17 04:37:55;;;;;;;61.10;27.77;;;-1.20;99.90;;;;;;4790872;29;20242;-79
2023/03/17 04:40:23;;;;;;;64.53;27.70;;;-1.20;99.90;;;;;;4791100;29;20221;-80
2023/03/17 04:42:49;;;;;;;58.87;27.27;;;-1.10;99.90;;;;;;4790746;29;20211;-82
2023/03/17 04:45:17;;;;;;;66.47;26.73;;;-1.20;99.90;;;;;;4806743;29;20204;-77
2023/03/17 04:47:45;;;;;;;59.00;26.83;;;-1.20;99.90;;;;;;4772796;30;20211;-76
2023/03/17 04:50:13;;;;;;;59.80;26.50;;;-1.20;99.90;;;;;;4772808;30;20253;-79
2023/03/17 04:52:40;;;;;;;59.00;26.77;;;-1.20;99.90;;;;;;4772625;30;20219;-76
2023/03/17 04:55:09;;;;;;;60.53;26.40;;;-1.20;99.90;;;;;;4784973;29;20234;-76
2023/03/17 04:57:36;;;;;;;56.70;27.00;;;-1.20;99.90;;;;;;4806886;29;20562;-78
2023/03/17 05:00:04;;;;;;;58.37;25.80;;;-1.20;99.90;;;;;;4790252;29;20209;-80
2023/03/17 05:02:32;;;;;;;56.07;25.90;;;-1.20;99.90;;;;;;4790418;29;20673;-80
2023/03/17 05:04:59;;;;;;;64.53;26.90;;;-1.20;99.90;;;;;;4790919;29;20209;-80
2023/03/17 05:07:29;;;;;;;58.77;27.43;;;-1.20;99.90;;;;;;4806517;29;20266;-81
2023/03/17 05:09:59;;;;;;;58.30;26.80;;;-1.20;99.90;;;;;;4790330;29;20197;-81
2023/03/17 05:12:27;;;;;;;58.63;26.83;;;-1.20;99.90;;;;;;4806735;29;20218;-80
2023/03/17 05:14:54;;;;;;;59.83;26.80;;;-1.20;99.90;;;;;;4789808;29;20229;-81
2023/03/17 05:17:21;;;;;;;59.53;27.00;;;-1.20;99.90;;;;;;4789976;29;20237;-80
2023/03/17 05:19:48;;;;;;;58.27;26.43;;;-1.20;99.90;;;;;;4790365;29;20598;-77
2023/03/17 05:22:15;;;;;;;60.27;26.67;;;-1.20;99.90;;;;;;4790166;29;20237;-80
2023/03/17 05:24:42;;;;;;;61.53;26.20;;;-1.20;99.90;;;;;;4779863;30;20239;-78
2023/03/17 05:27:08;;;;;;;62.83;27.60;;;-1.10;99.90;;;;;;4769318;30;20214;-78
2023/03/17 05:29:35;;;;;;;63.73;27.80;;;-1.00;99.90;;;;;;4770420;30;20200;-80
2023/03/17 05:32:03;;;;;;;60.90;27.17;;;-1.00;99.90;;;;;;4769132;30;20207;-79
2023/03/17 05:34:30;;;;;;;59.33;26.93;;;-1.00;99.90;;;;;;4769233;30;20208;-82
2023/03/17 05:36:56;;;;;;;62.80;27.17;;;-0.90;99.90;;;;;;4768894;30;20751;-79
2023/03/17 05:39:23;;;;;;;57.57;28.13;;;-0.80;99.90;;;;;;4768946;30;20590;-81
2023/03/17 05:41:51;;;;;;;62.70;26.60;;;-0.80;99.90;;;;;;4769046;30;20693;-78
2023/03/17 05:44:19;;;;;;;59.40;27.53;;;-0.80;99.90;;;;;;4768732;30;20715;-78
2023/03/17 05:46:46;;;;;;;59.30;27.47;;;-0.70;99.90;;;;;;4769061;30;20231;-78
2023/03/17 05:49:14;;;;;;;58.50;26.70;;;-0.60;99.90;;;;;;4769031;30;20226;-79
2023/03/17 05:51:41;;;;;;;57.57;26.50;;;-0.70;99.90;;;;;;4768997;30;20624;-81
2023/03/17 05:54:07;;;;;;;56.03;27.23;;;-0.60;99.90;;;;;;4769794;30;20267;-81
2023/03/17 05:56:35;;;;;;;57.10;25.70;;;-0.40;99.90;;;;;;4768857;30;20204;-81
2023/03/17 05:59:03;;;;;;;55.63;26.83;;;-0.40;99.90;;;;;;4768747;30;20312;-77
2023/03/17 06:01:30;;;;;;;55.23;25.90;;;-0.30;99.90;;;;;;4768691;30;20216;-81
2023/03/17 06:03:57;;;;;;;57.27;26.53;;;-0.20;99.90;;;;;;4767660;30;20209;-80
2023/03/17 06:06:24;;;;;;;56.93;24.77;;;0.00;99.90;;;;;;4768586;30;20692;-80
2023/03/17 06:08:51;;;;;;;55.20;24.80;;;0.10;99.90;;;;;;4769052;30;20209;-81
2023/03/17 06:11:20;;;;;;;55.87;24.77;;;0.20;99.90;;;;;;4769616;30;20714;-80
2023/03/17 06:13:49;;;;;;;50.77;23.87;;;0.40;99.90;;;;;;4768598;30;20664;-82
2023/03/17 06:16:16;;;;;;;49.17;23.57;;;0.50;99.90;;;;;;4769694;30;20562;-79
2023/03/17 06:18:44;;;;;;;52.77;23.63;;;0.60;99.90;;;;;;4768771;30;20233;-80
2023/03/17 06:21:13;;;;;;;48.60;24.00;;;0.70;99.90;;;;;;4768269;30;20650;-86
2023/03/17 06:23:40;;;;;;;48.70;23.03;;;0.80;99.90;;;;;;4768367;30;20540;-81
2023/03/17 06:26:07;;;;;;;51.50;22.53;;;0.90;99.90;;;;;;4768218;30;20703;-77
2023/03/17 06:28:34;;;;;;;43.80;20.77;;;1.10;99.90;;;;;;4768394;30;20312;-78
2023/03/17 06:31:01;;;;;;;48.50;21.40;;;1.20;99.90;;;;;;4767959;30;20201;-83
2023/03/17 06:33:31;;;;;;;43.63;21.30;;;1.20;99.90;;;;;;4770105;30;20292;-82
2023/03/17 06:36:02;;;;;;;41.57;21.00;;;1.40;99.90;;;;;;4771204;30;20224;-86
2023/03/17 06:38:29;;;;;;;43.73;20.37;;;1.40;99.90;;;;;;4769714;30;20288;-75
2023/03/17 06:40:56;;;;;;;42.67;20.40;;;1.50;99.90;;;;;;4769329;30;20200;-75
2023/03/17 06:43:23;;;;;;;39.23;19.97;;;1.60;99.90;;;;;;4768247;30;20209;-76
2023/03/17 06:45:51;;;;;;;40.57;20.80;;;1.60;99.90;;;;;;4769551;30;20208;-73
2023/03/17 06:48:18;;;;;;;39.83;19.87;;;1.70;99.90;;;;;;4770439;30;20241;-86
2023/03/17 06:50:49;;;;;;;45.77;20.30;;;1.80;99.90;;;;;;4771796;30;20205;-84
2023/03/17 06:53:15;;;;;;;46.23;20.70;;;1.90;99.90;;;;;;4773950;30;20219;-86
2023/03/17 06:55:42;;;;;;;45.00;20.37;;;1.90;99.90;;;;;;4784714;30;20201;-88
2023/03/17 06:58:12;;;;;;;44.87;20.70;;;2.00;99.90;;;;;;4774548;30;20232;-91
2023/03/17 07:00:39;;;;;;;41.87;20.50;;;2.00;99.90;;;;;;4769433;30;20201;-84
2023/03/17 07:03:06;;;;;;;42.30;18.27;;;2.00;99.90;;;;;;4771318;30;20243;-87
2023/03/17 07:05:33;;;;;;;36.67;16.97;;;2.00;99.90;;;;;;4770701;30;20202;-84
2023/03/17 07:08:00;;;;;;;39.93;18.37;;;2.00;99.90;;;;;;4769058;30;20232;-80
2023/03/17 07:10:27;;;;;;;36.70;17.70;;;2.00;99.90;;;;;;4768134;30;21100;-87
2023/03/17 07:12:54;;;;;;;35.00;17.87;;;2.10;99.90;;;;;;4772622;30;20308;-84
2023/03/17 07:15:21;;;;;;;40.20;19.50;;;2.20;99.90;;;;;;4778557;30;20212;-88
2023/03/17 07:17:48;;;;;;;36.30;17.93;;;2.30;99.90;;;;;;4777345;30;20239;-89
2023/03/17 07:20:15;;;;;;;37.47;18.03;;;2.30;99.90;;;;;;4775093;30;20205;-89
2023/03/17 07:22:42;;;;;;;38.47;17.63;;;2.20;99.90;;;;;;4773720;30;20228;-88
2023/03/17 07:25:09;;;;;;;38.07;18.57;;;2.20;99.90;;;;;;4773191;30;20233;-91
2023/03/17 07:27:37;;;;;;;39.53;18.90;;;2.30;99.90;;;;;;4776713;30;20212;-94
2023/03/17 07:30:05;;;;;;;42.10;19.03;;;2.50;99.90;;;;;;4779748;30;20706;-84
2023/03/17 07:32:35;;;;;;;35.43;19.20;;;2.60;99.90;;;;;;4790408;30;20217;-80
2023/03/17 07:35:03;;;;;;;41.20;20.93;;;2.70;99.90;;;;;;4783305;30;20205;-80
2023/03/17 07:37:30;;;;;;;42.00;21.07;;;2.80;99.90;;;;;;4790627;30;20296;-78
2023/03/17 07:39:59;;;;;;;38.67;20.37;;;2.90;99.90;;;;;;4783102;30;20212;-85
2023/03/17 07:42:27;;;;;;;41.30;20.77;;;3.00;99.90;;;;;;4770849;30;20553;-87
2023/03/17 07:44:54;;;;;;;43.70;20.83;;;3.10;99.90;;;;;;4776178;30;20211;-93
2023/03/17 07:47:21;;;;;;;41.40;20.23;;;3.20;99.90;;;;;;4771882;30;20227;-84
2023/03/17 07:49:48;;;;;;;40.93;20.03;;;3.30;99.90;;;;;;4782608;24;20730;-91
2023/03/17 07:52:17;;;;;;;35.87;18.30;;;3.50;99.90;;;;;;4790325;30;20267;-91
2023/03/17 07:54:46;;;;;;;36.97;17.73;;;3.60;99.90;;;;;;4789034;30;20319;-78
2023/03/17 07:57:15;;;;;;;37.43;17.13;;;3.70;99.90;;;;;;4790799;30;20268;-86
2023/03/17 07:59:42;;;;;;;36.77;16.73;;;3.70;99.90;;;;;;4788701;30;20213;-83
2023/03/17 08:02:14;;;;;;;37.57;17.27;;;3.80;99.90;;;;;;4774401;30;20212;-82
2023/03/17 08:04:42;;;;;;;29.97;15.80;;;4.00;99.90;;;;;;4787662;30;20207;-80
2023/03/17 08:07:52;;;;;;;34.30;16.47;;;4.20;99.90;;;;;;4771448;30;20670;-81
2023/03/17 08:10:19;;;;;;;33.37;14.63;;;4.40;99.90;;;;;;4769626;30;20335;-78
2023/03/17 08:12:50;;;;;;;32.83;14.90;;;4.40;99.90;;;;;;4771186;30;20229;-78
2023/03/17 08:15:17;;;;;;;26.03;14.53;;;4.50;99.90;;;;;;4770816;30;20666;-79
2023/03/17 08:17:44;;;;;;;26.60;14.63;;;4.70;99.90;;;;;;4769649;30;20274;-79
2023/03/17 08:20:12;;;;;;;23.83;11.90;;;4.90;99.90;;;;;;4769703;30;20207;-78
2023/03/17 08:22:39;;;;;;;21.83;10.73;;;5.00;99.90;;;;;;4770239;30;20204;-80
2023/03/17 08:25:08;;;;;;;26.57;12.83;;;5.50;99.90;;;;;;4771050;30;20209;-79
2023/03/17 08:27:35;;;;;;;25.53;13.73;;;6.20;99.90;;;;;;4769409;30;20227;-81
2023/03/17 08:30:03;;;;;;;26.63;13.00;;;6.80;99.90;;;;;;4769918;30;20209;-78
2023/03/17 08:32:29;;;;;;;25.20;12.13;;;7.30;99.90;;;;;;4769629;30;20213;-78
2023/03/17 08:34:56;;;;;;;24.93;12.17;;;7.60;99.90;;;;;;4769754;30;20212;-80
2023/03/17 08:37:23;;;;;;;20.37;11.10;;;7.90;99.90;;;;;;4769417;30;20220;-78
2023/03/17 08:39:50;;;;;;;16.53;7.23;;;8.50;99.90;;;;;;4769502;30;20201;-80
2023/03/17 08:42:18;;;;;;;13.43;6.70;;;8.40;99.90;;;;;;4769459;30;20207;-80
2023/03/17 08:44:45;;;;;;;13.77;6.40;;;8.50;99.90;;;;;;4769429;30;20205;-81
2023/03/17 08:47:12;;;;;;;12.87;6.23;;;8.90;99.90;;;;;;4770437;30;20215;-80
2023/03/17 08:49:39;;;;;;;11.20;5.53;;;9.50;99.90;;;;;;4780820;29;20240;-81
2023/03/17 08:52:06;;;;;;;10.80;6.13;;;9.60;99.90;;;;;;4806686;29;20204;-81
2023/03/17 08:54:43;;;;;;;13.03;6.43;;;10.00;99.90;;;;;;4790256;29;20230;-80
2023/03/17 08:57:10;;;;;;;10.80;5.30;;;10.20;99.90;;;;;;4790293;29;20297;-79
2023/03/17 08:59:41;;;;;;;12.63;5.83;;;10.00;99.90;;;;;;4789715;29;20228;-79
2023/03/17 09:02:10;;;;;;;9.07;5.03;;;9.80;99.90;;;;;;4792524;29;20191;-79
2023/03/17 09:04:38;;;;;;;9.80;5.33;;;9.90;99.90;;;;;;4796805;29;20239;-79
2023/03/17 09:07:06;;;;;;;9.13;5.50;;;9.30;99.90;;;;;;4821305;29;20298;-77
2023/03/17 09:09:36;;;;;;;10.80;5.60;;;9.20;99.90;;;;;;4799598;29;20670;-79
2023/03/17 09:12:06;;;;;;;9.33;5.53;;;9.50;99.90;;;;;;4815778;29;20211;-79
2023/03/17 09:14:33;;;;;;;11.90;5.40;;;9.90;99.90;;;;;;4792710;29;20215;-78
2023/03/17 09:17:10;;;;;;;12.87;5.10;;;9.80;99.80;;;;;;4789900;29;20207;-79
2023/03/17 09:19:37;;;;;;;13.90;5.60;;;10.00;98.50;;;;;;4789714;29;20253;-79
2023/03/17 09:22:04;;;;;;;10.23;5.17;;;10.10;98.70;;;;;;4805395;29;20279;-78
2023/03/17 09:24:31;;;;;;;9.93;5.63;;;10.80;99.00;;;;;;4789600;29;20203;-80
2023/03/17 09:27:00;;;;;;;11.33;5.20;;;10.90;94.00;;;;;;4789783;29;20199;-79
2023/03/17 09:29:27;;;;;;;9.73;5.50;;;10.80;94.00;;;;;;4805938;29;20204;-78
2023/03/17 09:31:55;;;;;;;11.07;4.57;;;10.90;93.70;;;;;;4789569;29;20224;-74
2023/03/17 09:34:24;;;;;;;9.40;5.30;;;11.00;93.20;;;;;;4789677;29;20207;-75
2023/03/17 09:36:53;;;;;;;9.73;5.80;;;11.40;92.10;;;;;;4807657;29;20199;-76
2023/03/17 09:39:21;;;;;;;8.97;5.20;;;11.70;91.40;;;;;;4806383;29;20222;-73
2023/03/17 09:42:06;;;;;;;11.37;5.37;;;11.70;90.00;;;;;;4792944;29;20202;-73
2023/03/17 09:44:58;;;;;;;10.30;5.23;;;12.00;90.20;;;;;;4807660;29;20199;-77
2023/03/17 09:47:53;;;;;;;9.40;5.17;;;12.30;87.80;;;;;;4807553;29;20218;-77
2023/03/17 09:50:37;;;;;;;10.43;5.10;;;12.50;84.60;;;;;;4793870;29;20296;-77
2023/03/17 09:53:11;;;;;;;9.33;5.30;;;12.80;83.50;;;;;;4787569;30;20593;-78
2023/03/17 09:55:38;;;;;;;8.77;4.90;;;12.70;79.00;;;;;;4778595;30;20801;-77
2023/03/17 09:58:08;;;;;;;8.10;5.00;;;12.80;80.90;;;;;;4779869;30;20239;-75
2023/03/17 10:00:36;;;;;;;8.40;4.87;;;12.60;79.30;;;;;;4784445;30;20233;-77
2023/03/17 10:03:09;;;;;;;10.17;4.83;;;12.90;79.60;;;;;;4786162;30;20208;-80
2023/03/17 10:05:36;;;;;;;10.33;4.20;;;13.00;77.40;;;;;;4771384;30;20212;-81
2023/03/17 10:08:19;;;;;;;10.53;4.77;;;13.40;76.20;;;;;;4768013;30;20691;-80
2023/03/17 10:11:18;;;;;;;8.87;4.57;;;12.90;73.00;;;;;;4781970;30;20228;-79
2023/03/17 10:13:56;;;;;;;9.83;4.93;;;12.40;76.90;;;;;;4775538;30;20208;-79
2023/03/17 10:16:37;;;;;;;9.10;5.17;;;12.30;78.10;;;;;;4777691;30;20261;-75
2023/03/17 10:19:28;;;;;;;12.40;5.40;;;12.40;76.90;;;;;;4778149;30;20236;-76
2023/03/17 10:22:18;;;;;;;11.13;4.90;;;12.40;77.60;;;;;;4785767;30;20212;-76
2023/03/17 10:24:50;;;;;;;10.50;5.00;;;13.40;77.10;;;;;;4770803;30;20210;-77
2023/03/17 10:27:20;;;;;;;9.63;5.20;;;13.80;73.20;;;;;;4769469;30;20216;-75
2023/03/17 10:29:47;;;;;;;9.10;5.00;;;14.10;71.40;;;;;;4783097;30;20220;-75
2023/03/17 10:32:18;;;;;;;8.67;4.70;;;13.70;70.80;;;;;;4778550;30;20208;-75
2023/03/17 10:34:48;;;;;;;9.70;4.80;;;13.90;70.00;;;;;;4777124;30;20402;-75
2023/03/17 10:37:22;;;;;;;8.03;4.57;;;14.10;68.90;;;;;;4768818;30;20216;-77
2023/03/17 10:39:52;;;;;;;9.50;4.73;;;14.00;68.80;;;;;;4767725;30;20248;-75
2023/03/17 10:42:23;;;;;;;9.03;4.47;;;13.80;68.70;;;;;;4767667;30;20208;-77
2023/03/17 10:44:55;;;;;;;7.93;4.23;;;13.70;67.70;;;;;;4767990;30;20587;-77
2023/03/17 10:47:29;;;;;;;10.27;4.80;;;13.80;66.70;;;;;;4767169;30;20232;-75
2023/03/17 10:49:58;;;;;;;10.37;5.00;;;13.80;67.40;;;;;;4798327;29;20246;-80
2023/03/17 10:52:32;;;;;;;8.97;5.10;;;14.40;67.70;;;;;;4808323;29;20670;-79
2023/03/17 10:55:04;;;;;;;8.27;4.90;;;14.60;66.70;;;;;;4796756;29;20213;-80
2023/03/17 10:57:36;;;;;;;9.67;4.83;;;14.80;66.40;;;;;;4815412;29;20203;-79
2023/03/17 11:00:15;;;;;;;9.30;5.03;;;15.00;65.20;;;;;;4819633;29;20252;-83
2023/03/17 11:02:46;;;;;;;11.83;5.30;;;15.00;64.50;;;;;;4792484;29;20317;-81
2023/03/17 11:05:25;;;;;;;10.07;5.27;;;15.00;64.90;;;;;;4798257;29;20207;-78
2023/03/17 11:08:09;;;;;;;8.97;5.37;;;14.70;64.30;;;;;;4802318;29;20214;-78
2023/03/17 11:10:39;;;;;;;9.80;5.43;;;14.70;66.20;;;;;;4809760;29;20230;-82
2023/03/17 11:13:07;;;;;;;12.37;5.70;;;14.20;65.90;;;;;;4815060;29;20195;-83
2023/03/17 11:15:41;;;;;;;11.63;5.57;;;14.40;67.30;;;;;;4796380;29;20207;-84
2023/03/17 11:18:34;;;;;;;9.87;5.50;;;14.40;63.80;;;;;;4808142;29;20298;-78
2023/03/17 11:21:10;;;;;;;9.13;5.50;;;14.60;66.20;;;;;;4752409;30;20225;-78
2023/03/17 11:23:46;;;;;;;10.33;5.87;;;14.40;64.50;;;;;;4741270;30;20634;-77
2023/03/17 11:26:18;;;;;;;10.77;5.60;;;13.80;65.60;;;;;;4754952;30;20655;-76
2023/03/17 11:28:56;;;;;;;12.23;6.40;;;14.30;66.50;;;;;;4749350;30;20217;-76
2023/03/17 11:31:52;;;;;;;13.17;6.80;;;14.50;65.80;;;;;;4737348;30;20569;-77
2023/03/17 11:34:33;;;;;;;11.90;6.40;;;14.30;65.40;;;;;;4737435;30;20267;-78
2023/03/17 11:37:10;;;;;;;11.57;6.53;;;14.00;66.70;;;;;;4755335;30;20209;-79
2023/03/17 11:40:05;;;;;;;12.53;6.50;;;13.60;67.20;;;;;;4754990;30;20241;-80
2023/03/17 11:42:51;;;;;;;14.03;6.30;;;14.20;67.60;;;;;;4731842;30;20215;-81
2023/03/17 11:45:30;;;;;;;12.63;6.33;;;14.60;66.90;;;;;;4733884;30;20225;-76
2023/03/17 11:48:23;;;;;;;11.37;6.20;;;14.60;66.10;;;;;;4719250;30;20690;-82
2023/03/17 11:51:00;;;;;;;15.40;6.87;;;14.90;64.30;;;;;;4728443;30;20700;-74
2023/03/17 11:53:29;;;;;;;13.17;6.60;;;14.60;64.20;;;;;;4751653;30;20210;-75
2023/03/17 11:56:08;;;;;;;10.40;6.07;;;15.00;64.70;;;;;;4754138;30;20304;-73
2023/03/17 11:58:42;;;;;;;13.40;6.50;;;15.40;63.90;;;;;;4810655;29;20627;-81
2023/03/17 12:01:53;;;;;;;12.20;6.50;;;15.50;62.00;;;;;;4808701;29;20200;-74
2023/03/17 12:04:29;;;;;;;12.83;6.73;;;15.50;61.80;;;;;;4809134;29;20253;-76
2023/03/17 12:07:07;;;;;;;12.93;7.10;;;15.60;62.10;;;;;;4826963;29;20210;-75
2023/03/17 12:09:43;;;;;;;12.20;7.00;;;15.50;63.00;;;;;;4810104;29;20203;-80
2023/03/17 12:12:13;;;;;;;13.40;7.00;;;15.40;62.20;;;;;;4808903;29;20241;-76
2023/03/17 12:14:52;;;;;;;12.60;7.10;;;15.60;62.40;;;;;;4809154;29;20195;-79
2023/03/17 12:17:35;;;;;;;14.00;7.53;;;15.80;61.30;;;;;;4809311;29;20331;-80
2023/03/17 12:20:08;;;;;;;13.00;7.37;;;15.50;61.30;;;;;;4809354;29;20226;-80
2023/03/17 12:23:01;;;;;;;13.80;7.17;;;15.30;61.50;;;;;;4808946;29;20650;-78
2023/03/17 12:25:36;;;;;;;13.60;7.13;;;15.30;62.70;;;;;;4808852;29;20221;-80
2023/03/17 12:28:13;;;;;;;14.87;7.40;;;15.60;61.20;;;;;;4806389;29;20650;-81
2023/03/17 12:30:59;;;;;;;13.30;7.47;;;15.40;60.90;;;;;;4790972;29;20209;-81
2023/03/17 12:33:56;;;;;;;14.40;7.03;;;15.10;62.40;;;;;;4807224;29;20211;-81
2023/03/17 12:36:24;;;;;;;14.10;7.50;;;14.50;62.90;;;;;;4790772;29;20242;-78
2023/03/17 12:39:05;;;;;;;13.20;7.20;;;13.90;65.40;;;;;;4807372;29;20215;-81
2023/03/17 12:42:04;;;;;;;15.70;7.13;;;13.80;66.90;;;;;;4807501;29;20292;-76
2023/03/17 12:45:00;;;;;;;14.07;6.93;;;13.90;65.90;;;;;;4775619;29;20295;-79
2023/03/17 12:48:00;;;;;;;12.77;6.77;;;13.20;65.40;;;;;;4790474;29;20235;-78
2023/03/17 12:50:33;;;;;;;13.03;6.57;;;12.40;69.50;;;;;;4806490;29;20702;-80
2023/03/17 12:53:28;;;;;;;12.50;6.30;;;12.70;69.50;;;;;;4807045;29;20203;-74
2023/03/17 12:56:09;;;;;;;10.67;5.87;;;12.20;68.70;;;;;;4806604;29;20204;-82